Home   Weather   USA   Sperryville   Past weeks
Flag for USA

Past Weather in Sperryville, Virginia, USA — Yesterday and Last 2 Weeks

Currently: 55 °F. Partly cloudy. (Weather station: warren County Airport, USA). See more current weather

Past Weather in Sperryville — Graph

°F

Sperryville Temperature Yesterday

Maximum temperature yesterday: 68 °F (at 3:35 pm)
Minimum temperature yesterday: 46 °F (at 6:55 am)
Average temperature yesterday: 56 °F

High & Low Weather Summary for the Past Weeks

 TemperatureHumidityPressure
High86 °F (Sep 21, 3:15 pm)100% (Sep 9, 9:15 pm)30.27 "Hg (Sep 9, 9:15 pm)
Low45 °F (Sep 24, 5:15 am)33% (Sep 23, 4:35 pm)29.68 "Hg (Sep 22, 8:15 am)
Average66 °F77%30.04 "Hg
* Reported Sep 9 9:15 pm — Sep 24 9:35 pm, Sperryville. Weather by CustomWeather, © 2022

Note: Actual official high and low records may vary slightly from our data, if they occured in-between our weather recording intervals... More about our weather records

Sperryville Weather History for the Previous 24 Hours

Scroll right to see more
 ConditionsComfort  
Time TempWeatherWind HumidityBarometerVisibility
9:35 pm
Sat, Sep 24
55 °FPassing clouds.No wind94%29.93 "Hg10 mi
7:35 pm59 °FClear.No wind82%29.93 "Hg10 mi
7:15 pm61 °FClear.No wind77%29.94 "Hg10 mi
6:35 pm64 °FSunny.No wind68%29.94 "Hg10 mi
6:15 pm66 °FScattered clouds.No wind64%29.94 "Hg10 mi
5:55 pm68 °FOvercast.No wind60%29.94 "Hg10 mi
4:55 pm68 °FSunny.3 mph56%29.96 "Hg10 mi
4:35 pm68 °FSunny.3 mph56%29.97 "Hg10 mi
4:15 pm68 °FScattered clouds.5 mph56%29.98 "Hg10 mi
3:35 pm64 °FMore clouds than sun.5 mph64%30.00 "Hg10 mi
3:15 pm64 °FOvercast.3 mph60%30.00 "Hg10 mi
2:35 pm64 °FPartly sunny.3 mph60%30.03 "Hg10 mi
2:15 pm64 °FScattered clouds.5 mph60%30.03 "Hg10 mi
1:35 pm64 °FScattered clouds.No wind56%30.05 "Hg10 mi
1:15 pm64 °FScattered clouds.No wind52%30.06 "Hg10 mi
12:35 pm64 °FSunny.3 mph52%30.08 "Hg10 mi
12:15 pm64 °FSunny.5 mph52%30.08 "Hg10 mi
11:55 am63 °FSunny.No wind56%30.09 "Hg10 mi
11:15 am61 °FScattered clouds.No wind55%30.11 "Hg10 mi
10:35 am59 °FPartly sunny.5 mph59%30.13 "Hg10 mi
9:55 am55 °FSunny.No wind77%30.13 "Hg10 mi
9:35 am54 °FSunny.No wind82%30.14 "Hg10 mi
9:15 am52 °FSunny.No wind82%30.14 "Hg10 mi
8:35 am52 °FSunny.No wind82%30.15 "Hg10 mi
8:15 am50 °FSunny.No wind88%30.15 "Hg10 mi
7:35 am46 °FSunny.5 mph93%30.15 "Hg10 mi
7:15 am45 °FSunny.No wind100%30.13 "Hg10 mi
6:55 am46 °FClear.5 mph93%30.14 "Hg10 mi
6:35 am46 °FClear.No wind93%30.14 "Hg10 mi
6:15 am45 °FClear.No wind100%30.14 "Hg10 mi
5:35 am45 °FClear.No wind93%30.13 "Hg10 mi
5:15 am45 °FClear.No wind100%30.14 "Hg10 mi
4:35 am46 °FClear.No wind93%30.14 "Hg10 mi
4:15 am46 °FClear.No wind93%30.14 "Hg10 mi
3:15 am50 °FClear.No wind82%30.13 "Hg10 mi
2:35 am50 °FClear.No wind88%30.13 "Hg10 mi
2:15 am50 °FClear.No wind82%30.13 "Hg10 mi
1:55 am50 °FClear.No wind82%30.13 "Hg10 mi
1:35 am50 °FClear.7 mph82%30.13 "Hg10 mi
1:15 am50 °FClear.No wind82%30.13 "Hg10 mi
12:35 am50 °FClear.3 mph82%30.14 "Hg10 mi
12:15 am50 °FClear.No wind82%30.13 "Hg10 mi
11:55 pm
Fri, Sep 23
52 °FClear.3 mph72%30.13 "Hg10 mi
11:35 pm50 °FClear.No wind76%30.13 "Hg10 mi
11:15 pm52 °FClear.No wind72%30.13 "Hg10 mi
Weather by CustomWeather, © 2022

See weather overview